sensor_id;sensor_type;location;lat;lon;timestamp;P1;durP1;ratioP1;P2;durP2;ratioP2
9848;SDS011;4963;51.444;6.528;2023-06-22T00:00:12;11.80;;;8.85;;
9848;SDS011;4963;51.444;6.528;2023-06-22T00:02:41;11.32;;;9.20;;
9848;SDS011;4963;51.444;6.528;2023-06-22T00:05:08;11.27;;;8.70;;
9848;SDS011;4963;51.444;6.528;2023-06-22T00:07:34;11.02;;;9.32;;
9848;SDS011;4963;51.444;6.528;2023-06-22T00:10:01;10.13;;;9.02;;
9848;SDS011;4963;51.444;6.528;2023-06-22T00:12:28;9.00;;;7.85;;
9848;SDS011;4963;51.444;6.528;2023-06-22T00:14:57;11.73;;;9.65;;
9848;SDS011;4963;51.444;6.528;2023-06-22T00:17:24;10.40;;;9.05;;
9848;SDS011;4963;51.444;6.528;2023-06-22T00:19:52;9.98;;;8.32;;
9848;SDS011;4963;51.444;6.528;2023-06-22T00:22:20;12.50;;;9.50;;
9848;SDS011;4963;51.444;6.528;2023-06-22T00:24:53;11.68;;;9.95;;
9848;SDS011;4963;51.444;6.528;2023-06-22T00:27:20;12.88;;;9.07;;
9848;SDS011;4963;51.444;6.528;2023-06-22T00:29:46;13.70;;;9.38;;
9848;SDS011;4963;51.444;6.528;2023-06-22T00:32:13;10.30;;;8.45;;
9848;SDS011;4963;51.444;6.528;2023-06-22T00:34:42;11.13;;;7.70;;
9848;SDS011;4963;51.444;6.528;2023-06-22T00:37:10;10.25;;;9.05;;
9848;SDS011;4963;51.444;6.528;2023-06-22T00:39:39;9.25;;;8.25;;
9848;SDS011;4963;51.444;6.528;2023-06-22T00:42:07;10.95;;;9.20;;
9848;SDS011;4963;51.444;6.528;2023-06-22T00:44:34;11.23;;;9.43;;
9848;SDS011;4963;51.444;6.528;2023-06-22T00:47:01;10.15;;;8.48;;
9848;SDS011;4963;51.444;6.528;2023-06-22T00:49:28;10.88;;;8.65;;
9848;SDS011;4963;51.444;6.528;2023-06-22T00:51:56;13.38;;;9.48;;
9848;SDS011;4963;51.444;6.528;2023-06-22T00:54:25;11.57;;;9.43;;
9848;SDS011;4963;51.444;6.528;2023-06-22T00:56:53;12.07;;;9.75;;
9848;SDS011;4963;51.444;6.528;2023-06-22T00:59:21;12.85;;;10.05;;
9848;SDS011;4963;51.444;6.528;2023-06-22T01:01:49;10.70;;;9.27;;
9848;SDS011;4963;51.444;6.528;2023-06-22T01:04:16;9.55;;;8.50;;
9848;SDS011;4963;51.444;6.528;2023-06-22T01:06:45;10.07;;;8.80;;
9848;SDS011;4963;51.444;6.528;2023-06-22T01:09:17;9.90;;;8.93;;
9848;SDS011;4963;51.444;6.528;2023-06-22T01:11:51;9.18;;;8.18;;
9848;SDS011;4963;51.444;6.528;2023-06-22T01:14:23;9.43;;;8.45;;
9848;SDS011;4963;51.444;6.528;2023-06-22T01:16:54;12.15;;;9.27;;
9848;SDS011;4963;51.444;6.528;2023-06-22T01:19:29;11.45;;;8.98;;
9848;SDS011;4963;51.444;6.528;2023-06-22T01:22:04;10.40;;;9.23;;
9848;SDS011;4963;51.444;6.528;2023-06-22T01:24:40;9.82;;;8.85;;
9848;SDS011;4963;51.444;6.528;2023-06-22T01:27:17;13.13;;;9.13;;
9848;SDS011;4963;51.444;6.528;2023-06-22T01:29:59;12.15;;;9.80;;
9848;SDS011;4963;51.444;6.528;2023-06-22T01:32:31;11.27;;;8.45;;
9848;SDS011;4963;51.444;6.528;2023-06-22T01:35:00;11.88;;;10.23;;
9848;SDS011;4963;51.444;6.528;2023-06-22T01:37:27;9.88;;;8.88;;
9848;SDS011;4963;51.444;6.528;2023-06-22T01:39:57;11.88;;;9.88;;
9848;SDS011;4963;51.444;6.528;2023-06-22T01:42:25;11.05;;;9.60;;
9848;SDS011;4963;51.444;6.528;2023-06-22T01:44:52;10.80;;;9.35;;
9848;SDS011;4963;51.444;6.528;2023-06-22T01:47:21;11.98;;;10.60;;
9848;SDS011;4963;51.444;6.528;2023-06-22T01:49:48;11.48;;;10.23;;
9848;SDS011;4963;51.444;6.528;2023-06-22T01:52:17;14.23;;;10.57;;
9848;SDS011;4963;51.444;6.528;2023-06-22T01:54:46;9.73;;;8.77;;
9848;SDS011;4963;51.444;6.528;2023-06-22T01:57:13;12.48;;;10.70;;
9848;SDS011;4963;51.444;6.528;2023-06-22T01:59:42;11.43;;;10.30;;
9848;SDS011;4963;51.444;6.528;2023-06-22T02:02:16;11.32;;;10.13;;
9848;SDS011;4963;51.444;6.528;2023-06-22T02:04:54;12.05;;;9.95;;
9848;SDS011;4963;51.444;6.528;2023-06-22T02:07:23;13.20;;;9.77;;
9848;SDS011;4963;51.444;6.528;2023-06-22T02:09:55;13.00;;;11.38;;
9848;SDS011;4963;51.444;6.528;2023-06-22T02:12:24;10.98;;;9.85;;
9848;SDS011;4963;51.444;6.528;2023-06-22T02:14:53;11.90;;;10.35;;
9848;SDS011;4963;51.444;6.528;2023-06-22T02:17:20;12.20;;;10.57;;
9848;SDS011;4963;51.444;6.528;2023-06-22T02:19:47;10.27;;;9.30;;
9848;SDS011;4963;51.444;6.528;2023-06-22T02:22:15;10.90;;;9.90;;
9848;SDS011;4963;51.444;6.528;2023-06-22T02:24:42;12.20;;;11.00;;
9848;SDS011;4963;51.444;6.528;2023-06-22T02:27:09;11.27;;;10.07;;
9848;SDS011;4963;51.444;6.528;2023-06-22T02:29:36;12.13;;;10.88;;
9848;SDS011;4963;51.444;6.528;2023-06-22T02:32:03;13.93;;;11.30;;
9848;SDS011;4963;51.444;6.528;2023-06-22T02:34:31;13.18;;;10.68;;
9848;SDS011;4963;51.444;6.528;2023-06-22T02:36:59;12.95;;;10.65;;
9848;SDS011;4963;51.444;6.528;2023-06-22T02:39:29;12.38;;;10.45;;
9848;SDS011;4963;51.444;6.528;2023-06-22T02:41:55;10.70;;;9.60;;
9848;SDS011;4963;51.444;6.528;2023-06-22T02:44:22;10.60;;;9.23;;
9848;SDS011;4963;51.444;6.528;2023-06-22T02:46:49;12.02;;;10.73;;
9848;SDS011;4963;51.444;6.528;2023-06-22T02:49:16;13.45;;;11.75;;
9848;SDS011;4963;51.444;6.528;2023-06-22T02:51:45;12.63;;;11.43;;
9848;SDS011;4963;51.444;6.528;2023-06-22T02:54:12;11.88;;;10.75;;
9848;SDS011;4963;51.444;6.528;2023-06-22T02:56:41;13.55;;;12.15;;
9848;SDS011;4963;51.444;6.528;2023-06-22T02:59:08;12.18;;;10.98;;
9848;SDS011;4963;51.444;6.528;2023-06-22T03:01:36;12.57;;;11.40;;
9848;SDS011;4963;51.444;6.528;2023-06-22T03:04:05;14.98;;;12.25;;
9848;SDS011;4963;51.444;6.528;2023-06-22T03:06:32;14.63;;;11.93;;
9848;SDS011;4963;51.444;6.528;2023-06-22T03:09:00;13.57;;;12.10;;
9848;SDS011;4963;51.444;6.528;2023-06-22T03:11:29;13.48;;;11.68;;
9848;SDS011;4963;51.444;6.528;2023-06-22T03:13:57;15.63;;;12.52;;
9848;SDS011;4963;51.444;6.528;2023-06-22T03:16:24;15.75;;;12.70;;
9848;SDS011;4963;51.444;6.528;2023-06-22T03:18:51;15.90;;;11.77;;
9848;SDS011;4963;51.444;6.528;2023-06-22T03:21:18;13.18;;;11.02;;
9848;SDS011;4963;51.444;6.528;2023-06-22T03:23:45;14.80;;;12.50;;
9848;SDS011;4963;51.444;6.528;2023-06-22T03:26:12;14.57;;;13.02;;
9848;SDS011;4963;51.444;6.528;2023-06-22T03:28:39;13.55;;;12.25;;
9848;SDS011;4963;51.444;6.528;2023-06-22T03:31:07;14.38;;;12.60;;
9848;SDS011;4963;51.444;6.528;2023-06-22T03:33:34;13.75;;;12.45;;
9848;SDS011;4963;51.444;6.528;2023-06-22T03:36:01;14.93;;;13.32;;
9848;SDS011;4963;51.444;6.528;2023-06-22T03:38:29;13.30;;;11.93;;
9848;SDS011;4963;51.444;6.528;2023-06-22T03:43:40;13.48;;;11.73;;
9848;SDS011;4963;51.444;6.528;2023-06-22T03:46:08;14.20;;;12.38;;
9848;SDS011;4963;51.444;6.528;2023-06-22T03:48:35;13.70;;;12.35;;
9848;SDS011;4963;51.444;6.528;2023-06-22T03:51:02;15.05;;;13.13;;
9848;SDS011;4963;51.444;6.528;2023-06-22T03:53:29;15.05;;;13.48;;
9848;SDS011;4963;51.444;6.528;2023-06-22T03:55:56;15.23;;;13.65;;
9848;SDS011;4963;51.444;6.528;2023-06-22T03:58:23;13.75;;;12.30;;
9848;SDS011;4963;51.444;6.528;2023-06-22T04:00:50;13.77;;;12.48;;
9848;SDS011;4963;51.444;6.528;2023-06-22T04:03:20;16.70;;;15.00;;
9848;SDS011;4963;51.444;6.528;2023-06-22T04:05:47;15.05;;;13.52;;
9848;SDS011;4963;51.444;6.528;2023-06-22T04:08:14;14.27;;;12.77;;
9848;SDS011;4963;51.444;6.528;2023-06-22T04:10:41;15.82;;;14.20;;
9848;SDS011;4963;51.444;6.528;2023-06-22T04:13:08;16.83;;;15.07;;
9848;SDS011;4963;51.444;6.528;2023-06-22T04:15:35;15.50;;;12.93;;
9848;SDS011;4963;51.444;6.528;2023-06-22T04:18:02;14.70;;;13.18;;
9848;SDS011;4963;51.444;6.528;2023-06-22T04:20:30;16.35;;;13.55;;
9848;SDS011;4963;51.444;6.528;2023-06-22T04:22:57;15.20;;;13.68;;
9848;SDS011;4963;51.444;6.528;2023-06-22T04:25:24;15.25;;;13.68;;
9848;SDS011;4963;51.444;6.528;2023-06-22T04:27:51;15.75;;;14.25;;
9848;SDS011;4963;51.444;6.528;2023-06-22T04:30:18;13.77;;;12.40;;
9848;SDS011;4963;51.444;6.528;2023-06-22T04:32:44;16.92;;;14.07;;
9848;SDS011;4963;51.444;6.528;2023-06-22T04:35:21;15.95;;;13.38;;
9848;SDS011;4963;51.444;6.528;2023-06-22T04:37:49;16.25;;;14.65;;
9848;SDS011;4963;51.444;6.528;2023-06-22T04:40:19;19.52;;;15.18;;
9848;SDS011;4963;51.444;6.528;2023-06-22T04:42:47;15.60;;;13.90;;
9848;SDS011;4963;51.444;6.528;2023-06-22T04:45:17;18.10;;;15.82;;
9848;SDS011;4963;51.444;6.528;2023-06-22T04:47:44;13.95;;;12.55;;
9848;SDS011;4963;51.444;6.528;2023-06-22T04:50:11;16.52;;;14.90;;
9848;SDS011;4963;51.444;6.528;2023-06-22T04:52:38;20.88;;;15.45;;
9848;SDS011;4963;51.444;6.528;2023-06-22T04:55:07;17.38;;;15.57;;
9848;SDS011;4963;51.444;6.528;2023-06-22T04:57:34;16.13;;;14.40;;
9848;SDS011;4963;51.444;6.528;2023-06-22T05:00:04;16.83;;;15.23;;
9848;SDS011;4963;51.444;6.528;2023-06-22T05:02:37;20.52;;;16.20;;
9848;SDS011;4963;51.444;6.528;2023-06-22T05:05:04;15.45;;;13.85;;
9848;SDS011;4963;51.444;6.528;2023-06-22T05:07:32;17.05;;;15.27;;
9848;SDS011;4963;51.444;6.528;2023-06-22T05:09:59;18.52;;;16.65;;
9848;SDS011;4963;51.444;6.528;2023-06-22T05:12:29;17.58;;;15.77;;
9848;SDS011;4963;51.444;6.528;2023-06-22T05:14:56;16.17;;;14.30;;
9848;SDS011;4963;51.444;6.528;2023-06-22T05:17:23;16.30;;;13.75;;
9848;SDS011;4963;51.444;6.528;2023-06-22T05:19:51;18.25;;;16.45;;
9848;SDS011;4963;51.444;6.528;2023-06-22T05:22:18;18.30;;;16.42;;
9848;SDS011;4963;51.444;6.528;2023-06-22T05:24:45;17.13;;;15.52;;
9848;SDS011;4963;51.444;6.528;2023-06-22T05:27:12;13.40;;;12.13;;
9848;SDS011;4963;51.444;6.528;2023-06-22T05:29:41;18.33;;;16.38;;
9848;SDS011;4963;51.444;6.528;2023-06-22T05:32:08;18.55;;;16.30;;
9848;SDS011;4963;51.444;6.528;2023-06-22T05:34:35;19.73;;;15.95;;
9848;SDS011;4963;51.444;6.528;2023-06-22T05:37:03;16.63;;;14.18;;
9848;SDS011;4963;51.444;6.528;2023-06-22T05:39:30;16.27;;;14.68;;
9848;SDS011;4963;51.444;6.528;2023-06-22T05:41:57;17.13;;;15.32;;
9848;SDS011;4963;51.444;6.528;2023-06-22T05:44:23;16.30;;;14.70;;
9848;SDS011;4963;51.444;6.528;2023-06-22T05:46:52;15.18;;;13.70;;
9848;SDS011;4963;51.444;6.528;2023-06-22T05:49:18;17.58;;;15.85;;
9848;SDS011;4963;51.444;6.528;2023-06-22T05:51:49;17.60;;;15.80;;
9848;SDS011;4963;51.444;6.528;2023-06-22T05:54:15;16.50;;;14.80;;
9848;SDS011;4963;51.444;6.528;2023-06-22T05:56:43;17.60;;;15.82;;
9848;SDS011;4963;51.444;6.528;2023-06-22T05:59:10;19.70;;;16.48;;
9848;SDS011;4963;51.444;6.528;2023-06-22T06:01:37;17.42;;;15.82;;
9848;SDS011;4963;51.444;6.528;2023-06-22T06:04:06;17.85;;;15.52;;
9848;SDS011;4963;51.444;6.528;2023-06-22T06:06:34;19.85;;;15.50;;
9848;SDS011;4963;51.444;6.528;2023-06-22T06:09:02;20.92;;;17.52;;
9848;SDS011;4963;51.444;6.528;2023-06-22T06:11:29;19.15;;;17.15;;
9848;SDS011;4963;51.444;6.528;2023-06-22T06:13:57;20.33;;;17.92;;
9848;SDS011;4963;51.444;6.528;2023-06-22T06:16:24;20.48;;;18.42;;
9848;SDS011;4963;51.444;6.528;2023-06-22T06:18:51;20.50;;;18.48;;
9848;SDS011;4963;51.444;6.528;2023-06-22T06:21:21;21.50;;;19.25;;
9848;SDS011;4963;51.444;6.528;2023-06-22T06:23:51;22.00;;;19.48;;
9848;SDS011;4963;51.444;6.528;2023-06-22T06:26:18;19.17;;;17.30;;
9848;SDS011;4963;51.444;6.528;2023-06-22T06:28:53;22.17;;;19.85;;
9848;SDS011;4963;51.444;6.528;2023-06-22T06:31:19;22.90;;;19.70;;
9848;SDS011;4963;51.444;6.528;2023-06-22T06:33:46;20.35;;;16.88;;
9848;SDS011;4963;51.444;6.528;2023-06-22T06:36:13;21.75;;;19.25;;
9848;SDS011;4963;51.444;6.528;2023-06-22T06:38:42;21.48;;;19.35;;
9848;SDS011;4963;51.444;6.528;2023-06-22T06:41:09;21.02;;;18.40;;
9848;SDS011;4963;51.444;6.528;2023-06-22T06:43:36;24.75;;;20.08;;
9848;SDS011;4963;51.444;6.528;2023-06-22T06:46:03;20.95;;;18.85;;
9848;SDS011;4963;51.444;6.528;2023-06-22T06:48:30;20.73;;;18.52;;
9848;SDS011;4963;51.444;6.528;2023-06-22T06:50:57;21.27;;;19.08;;
9848;SDS011;4963;51.444;6.528;2023-06-22T06:53:24;21.92;;;19.73;;
9848;SDS011;4963;51.444;6.528;2023-06-22T06:55:53;20.27;;;18.25;;
9848;SDS011;4963;51.444;6.528;2023-06-22T06:58:20;21.30;;;19.15;;
9848;SDS011;4963;51.444;6.528;2023-06-22T07:00:48;22.48;;;20.17;;
9848;SDS011;4963;51.444;6.528;2023-06-22T07:03:15;22.85;;;20.45;;
9848;SDS011;4963;51.444;6.528;2023-06-22T07:05:44;21.10;;;19.00;;
9848;SDS011;4963;51.444;6.528;2023-06-22T07:08:11;22.92;;;19.05;;
9848;SDS011;4963;51.444;6.528;2023-06-22T07:10:38;21.45;;;19.25;;
9848;SDS011;4963;51.444;6.528;2023-06-22T07:13:06;22.10;;;19.45;;
9848;SDS011;4963;51.444;6.528;2023-06-22T07:15:33;21.67;;;19.15;;
9848;SDS011;4963;51.444;6.528;2023-06-22T07:18:00;21.00;;;18.83;;
9848;SDS011;4963;51.444;6.528;2023-06-22T07:20:27;24.25;;;19.10;;
9848;SDS011;4963;51.444;6.528;2023-06-22T07:22:54;23.58;;;17.55;;
9848;SDS011;4963;51.444;6.528;2023-06-22T07:25:20;20.70;;;17.83;;
9848;SDS011;4963;51.444;6.528;2023-06-22T07:27:56;20.23;;;17.95;;
9848;SDS011;4963;51.444;6.528;2023-06-22T07:30:25;19.45;;;17.38;;
9848;SDS011;4963;51.444;6.528;2023-06-22T07:32:53;18.17;;;16.35;;
9848;SDS011;4963;51.444;6.528;2023-06-22T07:35:20;18.02;;;15.77;;
9848;SDS011;4963;51.444;6.528;2023-06-22T07:37:46;18.02;;;15.32;;
9848;SDS011;4963;51.444;6.528;2023-06-22T07:40:13;20.45;;;16.38;;
9848;SDS011;4963;51.444;6.528;2023-06-22T07:42:40;20.60;;;17.42;;
9848;SDS011;4963;51.444;6.528;2023-06-22T07:45:07;19.08;;;17.25;;
9848;SDS011;4963;51.444;6.528;2023-06-22T07:47:36;18.35;;;16.45;;
9848;SDS011;4963;51.444;6.528;2023-06-22T07:50:03;19.70;;;17.73;;
9848;SDS011;4963;51.444;6.528;2023-06-22T07:52:30;20.45;;;18.40;;
9848;SDS011;4963;51.444;6.528;2023-06-22T07:54:58;19.80;;;17.52;;
9848;SDS011;4963;51.444;6.528;2023-06-22T07:57:24;20.10;;;17.00;;
9848;SDS011;4963;51.444;6.528;2023-06-22T07:59:57;17.73;;;15.90;;
9848;SDS011;4963;51.444;6.528;2023-06-22T08:02:24;18.67;;;16.77;;
9848;SDS011;4963;51.444;6.528;2023-06-22T08:04:52;20.67;;;18.48;;
9848;SDS011;4963;51.444;6.528;2023-06-22T08:07:19;20.25;;;18.10;;
9848;SDS011;4963;51.444;6.528;2023-06-22T08:09:46;21.85;;;18.17;;
9848;SDS011;4963;51.444;6.528;2023-06-22T08:12:14;21.55;;;17.38;;
9848;SDS011;4963;51.444;6.528;2023-06-22T08:14:42;20.45;;;18.33;;
9848;SDS011;4963;51.444;6.528;2023-06-22T08:17:11;19.67;;;17.73;;
9848;SDS011;4963;51.444;6.528;2023-06-22T08:19:39;21.13;;;19.02;;
9848;SDS011;4963;51.444;6.528;2023-06-22T08:22:10;21.15;;;18.85;;
9848;SDS011;4963;51.444;6.528;2023-06-22T08:24:37;22.77;;;19.75;;
9848;SDS011;4963;51.444;6.528;2023-06-22T08:27:06;21.33;;;19.15;;
9848;SDS011;4963;51.444;6.528;2023-06-22T08:29:33;23.17;;;20.67;;
9848;SDS011;4963;51.444;6.528;2023-06-22T08:32:00;22.15;;;19.60;;
9848;SDS011;4963;51.444;6.528;2023-06-22T08:34:27;21.52;;;19.23;;
9848;SDS011;4963;51.444;6.528;2023-06-22T08:36:54;22.58;;;20.23;;
9848;SDS011;4963;51.444;6.528;2023-06-22T08:39:22;22.23;;;19.83;;
9848;SDS011;4963;51.444;6.528;2023-06-22T08:41:49;24.08;;;21.60;;
9848;SDS011;4963;51.444;6.528;2023-06-22T08:44:17;25.63;;;22.48;;
9848;SDS011;4963;51.444;6.528;2023-06-22T08:46:45;23.10;;;20.80;;
9848;SDS011;4963;51.444;6.528;2023-06-22T08:49:13;26.48;;;22.73;;
9848;SDS011;4963;51.444;6.528;2023-06-22T08:51:41;23.52;;;21.13;;
9848;SDS011;4963;51.444;6.528;2023-06-22T08:54:09;24.33;;;22.02;;
9848;SDS011;4963;51.444;6.528;2023-06-22T08:56:37;26.05;;;21.58;;
9848;SDS011;4963;51.444;6.528;2023-06-22T08:59:04;24.52;;;21.52;;
9848;SDS011;4963;51.444;6.528;2023-06-22T09:01:32;23.50;;;20.98;;
9848;SDS011;4963;51.444;6.528;2023-06-22T09:03:59;25.70;;;23.10;;
9848;SDS011;4963;51.444;6.528;2023-06-22T09:06:26;25.27;;;22.70;;
9848;SDS011;4963;51.444;6.528;2023-06-22T09:08:56;23.60;;;21.00;;
9848;SDS011;4963;51.444;6.528;2023-06-22T09:11:24;24.77;;;21.48;;
9848;SDS011;4963;51.444;6.528;2023-06-22T09:13:52;23.02;;;20.58;;
9848;SDS011;4963;51.444;6.528;2023-06-22T09:16:19;23.88;;;19.67;;
9848;SDS011;4963;51.444;6.528;2023-06-22T09:18:46;23.45;;;21.05;;
9848;SDS011;4963;51.444;6.528;2023-06-22T09:21:14;25.13;;;19.98;;
9848;SDS011;4963;51.444;6.528;2023-06-22T09:23:41;23.70;;;21.13;;
9848;SDS011;4963;51.444;6.528;2023-06-22T09:26:08;26.63;;;21.25;;
9848;SDS011;4963;51.444;6.528;2023-06-22T09:28:35;22.23;;;20.15;;
9848;SDS011;4963;51.444;6.528;2023-06-22T09:31:04;24.73;;;20.23;;
9848;SDS011;4963;51.444;6.528;2023-06-22T09:33:31;23.58;;;20.83;;
9848;SDS011;4963;51.444;6.528;2023-06-22T09:35:58;23.38;;;20.73;;
9848;SDS011;4963;51.444;6.528;2023-06-22T09:38:25;22.48;;;20.23;;
9848;SDS011;4963;51.444;6.528;2023-06-22T09:40:52;22.88;;;20.55;;
9848;SDS011;4963;51.444;6.528;2023-06-22T09:43:19;22.38;;;20.10;;
9848;SDS011;4963;51.444;6.528;2023-06-22T09:45:46;22.42;;;20.13;;
9848;SDS011;4963;51.444;6.528;2023-06-22T09:48:14;23.05;;;20.20;;
9848;SDS011;4963;51.444;6.528;2023-06-22T09:50:41;23.67;;;21.25;;
9848;SDS011;4963;51.444;6.528;2023-06-22T09:53:08;22.52;;;20.35;;
9848;SDS011;4963;51.444;6.528;2023-06-22T09:55:35;23.77;;;20.30;;
9848;SDS011;4963;51.444;6.528;2023-06-22T09:58:01;21.65;;;19.55;;
9848;SDS011;4963;51.444;6.528;2023-06-22T10:00:28;21.70;;;19.23;;
9848;SDS011;4963;51.444;6.528;2023-06-22T10:02:55;20.23;;;18.23;;
9848;SDS011;4963;51.444;6.528;2023-06-22T10:05:23;20.85;;;18.73;;
9848;SDS011;4963;51.444;6.528;2023-06-22T10:07:51;19.52;;;17.73;;
9848;SDS011;4963;51.444;6.528;2023-06-22T10:10:18;21.25;;;19.15;;
9848;SDS011;4963;51.444;6.528;2023-06-22T10:12:53;19.92;;;18.02;;
9848;SDS011;4963;51.444;6.528;2023-06-22T10:15:21;20.83;;;18.63;;
9848;SDS011;4963;51.444;6.528;2023-06-22T10:17:48;21.60;;;18.65;;
9848;SDS011;4963;51.444;6.528;2023-06-22T10:20:15;22.17;;;17.77;;
9848;SDS011;4963;51.444;6.528;2023-06-22T10:22:44;20.80;;;18.65;;
9848;SDS011;4963;51.444;6.528;2023-06-22T10:25:12;19.83;;;17.95;;
9848;SDS011;4963;51.444;6.528;2023-06-22T10:27:39;18.20;;;16.42;;
9848;SDS011;4963;51.444;6.528;2023-06-22T10:30:06;19.52;;;17.58;;
9848;SDS011;4963;51.444;6.528;2023-06-22T10:32:34;19.58;;;17.52;;
9848;SDS011;4963;51.444;6.528;2023-06-22T10:35:01;20.88;;;18.35;;
9848;SDS011;4963;51.444;6.528;2023-06-22T10:37:28;20.50;;;18.33;;
9848;SDS011;4963;51.444;6.528;2023-06-22T10:39:57;19.05;;;17.23;;
9848;SDS011;4963;51.444;6.528;2023-06-22T10:42:24;19.77;;;17.80;;
9848;SDS011;4963;51.444;6.528;2023-06-22T10:44:51;20.27;;;18.35;;
9848;SDS011;4963;51.444;6.528;2023-06-22T10:47:17;21.08;;;18.95;;
9848;SDS011;4963;51.444;6.528;2023-06-22T10:49:44;20.10;;;18.20;;
9848;SDS011;4963;51.444;6.528;2023-06-22T10:52:11;18.73;;;16.90;;
9848;SDS011;4963;51.444;6.528;2023-06-22T10:54:38;18.25;;;16.52;;
9848;SDS011;4963;51.444;6.528;2023-06-22T10:57:06;19.30;;;17.15;;
9848;SDS011;4963;51.444;6.528;2023-06-22T10:59:33;20.75;;;18.65;;
9848;SDS011;4963;51.444;6.528;2023-06-22T11:02:00;19.98;;;17.90;;
9848;SDS011;4963;51.444;6.528;2023-06-22T11:04:27;19.17;;;17.30;;
9848;SDS011;4963;51.444;6.528;2023-06-22T11:06:54;20.42;;;18.42;;
9848;SDS011;4963;51.444;6.528;2023-06-22T11:09:22;20.77;;;18.70;;
9848;SDS011;4963;51.444;6.528;2023-06-22T11:11:49;21.60;;;19.60;;
9848;SDS011;4963;51.444;6.528;2023-06-22T11:14:19;19.15;;;17.23;;
9848;SDS011;4963;51.444;6.528;2023-06-22T11:16:46;21.45;;;19.40;;
9848;SDS011;4963;51.444;6.528;2023-06-22T11:19:13;19.40;;;17.50;;
9848;SDS011;4963;51.444;6.528;2023-06-22T11:21:40;24.15;;;19.67;;
9848;SDS011;4963;51.444;6.528;2023-06-22T11:24:07;20.33;;;18.10;;
9848;SDS011;4963;51.444;6.528;2023-06-22T11:26:34;19.65;;;17.88;;
9848;SDS011;4963;51.444;6.528;2023-06-22T11:29:02;20.73;;;18.85;;
9848;SDS011;4963;51.444;6.528;2023-06-22T11:31:35;23.10;;;20.67;;
9848;SDS011;4963;51.444;6.528;2023-06-22T11:34:07;18.58;;;16.80;;
9848;SDS011;4963;51.444;6.528;2023-06-22T11:36:37;19.40;;;17.60;;
9848;SDS011;4963;51.444;6.528;2023-06-22T11:39:30;24.08;;;21.67;;
9848;SDS011;4963;51.444;6.528;2023-06-22T11:42:22;23.20;;;20.48;;
9848;SDS011;4963;51.444;6.528;2023-06-22T11:44:50;24.55;;;22.02;;
9848;SDS011;4963;51.444;6.528;2023-06-22T11:47:19;25.67;;;23.08;;
9848;SDS011;4963;51.444;6.528;2023-06-22T12:00:11;27.25;;;23.85;;
9848;SDS011;4963;51.444;6.528;2023-06-22T12:02:48;29.92;;;27.05;;
9848;SDS011;4963;51.444;6.528;2023-06-22T12:05:21;28.25;;;25.42;;
9848;SDS011;4963;51.444;6.528;2023-06-22T12:08:04;31.13;;;28.00;;
9848;SDS011;4963;51.444;6.528;2023-06-22T12:10:34;29.95;;;27.15;;
9848;SDS011;4963;51.444;6.528;2023-06-22T12:13:15;27.70;;;24.77;;
9848;SDS011;4963;51.444;6.528;2023-06-22T12:15:49;30.20;;;27.10;;
9848;SDS011;4963;51.444;6.528;2023-06-22T12:18:24;31.70;;;28.38;;
9848;SDS011;4963;51.444;6.528;2023-06-22T12:20:51;33.05;;;29.75;;
9848;SDS011;4963;51.444;6.528;2023-06-22T12:23:27;32.80;;;29.63;;
9848;SDS011;4963;51.444;6.528;2023-06-22T12:25:59;32.55;;;29.25;;
9848;SDS011;4963;51.444;6.528;2023-06-22T12:28:38;32.92;;;29.83;;
9848;SDS011;4963;51.444;6.528;2023-06-22T12:31:19;36.08;;;32.58;;
9848;SDS011;4963;51.444;6.528;2023-06-22T13:12:33;35.90;;;32.47;;
9848;SDS011;4963;51.444;6.528;2023-06-22T13:15:01;37.83;;;34.10;;
9848;SDS011;4963;51.444;6.528;2023-06-22T13:17:28;36.90;;;33.05;;
9848;SDS011;4963;51.444;6.528;2023-06-22T13:19:55;33.78;;;30.48;;
9848;SDS011;4963;51.444;6.528;2023-06-22T13:22:29;34.97;;;31.70;;
9848;SDS011;4963;51.444;6.528;2023-06-22T13:24:57;34.17;;;31.02;;
9848;SDS011;4963;51.444;6.528;2023-06-22T13:27:25;34.42;;;30.92;;
9848;SDS011;4963;51.444;6.528;2023-06-22T13:29:54;36.30;;;32.55;;
9848;SDS011;4963;51.444;6.528;2023-06-22T13:32:21;34.70;;;31.50;;
9848;SDS011;4963;51.444;6.528;2023-06-22T13:34:48;34.63;;;31.40;;
9848;SDS011;4963;51.444;6.528;2023-06-22T13:37:15;31.85;;;28.58;;
9848;SDS011;4963;51.444;6.528;2023-06-22T13:39:42;33.85;;;30.50;;
9848;SDS011;4963;51.444;6.528;2023-06-22T13:42:09;34.67;;;31.33;;
9848;SDS011;4963;51.444;6.528;2023-06-22T13:44:36;32.40;;;29.20;;
9848;SDS011;4963;51.444;6.528;2023-06-22T13:47:05;33.28;;;30.10;;
9848;SDS011;4963;51.444;6.528;2023-06-22T13:49:32;34.17;;;30.80;;
9848;SDS011;4963;51.444;6.528;2023-06-22T13:52:00;33.65;;;30.30;;
9848;SDS011;4963;51.444;6.528;2023-06-22T13:54:28;34.13;;;30.65;;
9848;SDS011;4963;51.444;6.528;2023-06-22T13:56:56;35.35;;;31.92;;
9848;SDS011;4963;51.444;6.528;2023-06-22T13:59:23;33.60;;;30.10;;
9848;SDS011;4963;51.444;6.528;2023-06-22T14:01:51;32.72;;;29.60;;
9848;SDS011;4963;51.444;6.528;2023-06-22T14:04:21;34.00;;;30.73;;
9848;SDS011;4963;51.444;6.528;2023-06-22T14:06:49;33.42;;;30.02;;
9848;SDS011;4963;51.444;6.528;2023-06-22T14:09:16;35.17;;;31.67;;
9848;SDS011;4963;51.444;6.528;2023-06-22T14:11:43;36.17;;;32.58;;
9848;SDS011;4963;51.444;6.528;2023-06-22T14:14:10;35.90;;;32.03;;
9848;SDS011;4963;51.444;6.528;2023-06-22T14:16:37;36.65;;;32.95;;
9848;SDS011;4963;51.444;6.528;2023-06-22T14:19:04;34.05;;;30.75;;
9848;SDS011;4963;51.444;6.528;2023-06-22T14:21:33;37.60;;;33.58;;
9848;SDS011;4963;51.444;6.528;2023-06-22T14:24:00;35.17;;;31.77;;
9848;SDS011;4963;51.444;6.528;2023-06-22T14:26:27;35.65;;;32.05;;
9848;SDS011;4963;51.444;6.528;2023-06-22T14:28:54;35.72;;;32.33;;
9848;SDS011;4963;51.444;6.528;2023-06-22T14:31:22;35.08;;;31.58;;
9848;SDS011;4963;51.444;6.528;2023-06-22T14:33:49;34.70;;;31.20;;
9848;SDS011;4963;51.444;6.528;2023-06-22T14:36:16;35.78;;;32.05;;
9848;SDS011;4963;51.444;6.528;2023-06-22T14:38:45;34.45;;;31.15;;
9848;SDS011;4963;51.444;6.528;2023-06-22T14:41:12;33.90;;;30.73;;
9848;SDS011;4963;51.444;6.528;2023-06-22T14:43:43;34.92;;;31.58;;
9848;SDS011;4963;51.444;6.528;2023-06-22T14:46:12;34.05;;;30.65;;
9848;SDS011;4963;51.444;6.528;2023-06-22T14:48:39;36.08;;;32.33;;
9848;SDS011;4963;51.444;6.528;2023-06-22T14:51:07;32.38;;;29.27;;
9848;SDS011;4963;51.444;6.528;2023-06-22T14:53:34;36.22;;;32.67;;
9848;SDS011;4963;51.444;6.528;2023-06-22T14:56:03;34.90;;;31.25;;
9848;SDS011;4963;51.444;6.528;2023-06-22T14:58:31;33.97;;;30.55;;
9848;SDS011;4963;51.444;6.528;2023-06-22T15:00:59;35.13;;;31.63;;
9848;SDS011;4963;51.444;6.528;2023-06-22T15:03:26;35.00;;;31.52;;
9848;SDS011;4963;51.444;6.528;2023-06-22T15:05:57;32.55;;;29.33;;
9848;SDS011;4963;51.444;6.528;2023-06-22T15:08:24;35.60;;;32.15;;
9848;SDS011;4963;51.444;6.528;2023-06-22T15:10:52;37.88;;;33.97;;
9848;SDS011;4963;51.444;6.528;2023-06-22T15:13:21;36.97;;;33.22;;
9848;SDS011;4963;51.444;6.528;2023-06-22T15:15:48;34.85;;;31.40;;
9848;SDS011;4963;51.444;6.528;2023-06-22T15:18:16;35.15;;;31.55;;
9848;SDS011;4963;51.444;6.528;2023-06-22T15:20:43;34.17;;;30.77;;
9848;SDS011;4963;51.444;6.528;2023-06-22T15:23:11;33.72;;;30.33;;
9848;SDS011;4963;51.444;6.528;2023-06-22T15:25:38;35.80;;;32.35;;
9848;SDS011;4963;51.444;6.528;2023-06-22T15:28:05;33.25;;;30.05;;
9848;SDS011;4963;51.444;6.528;2023-06-22T15:30:34;34.67;;;31.05;;
9848;SDS011;4963;51.444;6.528;2023-06-22T15:33:01;33.83;;;30.45;;
9848;SDS011;4963;51.444;6.528;2023-06-22T15:35:29;34.63;;;30.92;;
9848;SDS011;4963;51.444;6.528;2023-06-22T15:37:56;30.83;;;27.83;;
9848;SDS011;4963;51.444;6.528;2023-06-22T15:40:24;32.63;;;29.38;;
9848;SDS011;4963;51.444;6.528;2023-06-22T15:42:51;32.60;;;29.23;;
9848;SDS011;4963;51.444;6.528;2023-06-22T15:45:44;32.65;;;29.33;;
9848;SDS011;4963;51.444;6.528;2023-06-22T15:48:18;28.48;;;25.63;;